Time;durP1;ratioP1;P1;durP2;ratioP2;P2;SDS_P1;SDS_P2;PMS_P1;PMS_P2;Temp;Humidity;BMP_temperature;BMP_pressure;BME280_temperature;BME280_humidity;BME280_pressure;Samples;Min_cycle;Max_cycle;Signal;HPM_P1;HPM_P2
2022/03/13 00:00:11;;;;;;;22.45;12.43;;;4.90;80.70;;;;;;4882025;29;20045;-79
2022/03/13 00:13:03;;;;;;;23.05;13.02;;;4.00;85.70;;;;;;5670399;23;20051;-79
2022/03/13 00:15:38;;;;;;;22.15;12.73;;;4.20;85.70;;;;;;4891591;29;20047;-79
2022/03/13 00:18:05;;;;;;;;;;;4.30;84.50;;;;;;4898509;29;20561;-79
2022/03/13 00:20:33;;;;;;;28.23;16.05;;;3.70;87.50;;;;;;4898788;29;19930;-77
2022/03/13 00:23:00;;;;;;;25.58;14.90;;;3.30;88.40;;;;;;4907013;29;20052;-79
2022/03/13 00:25:27;;;;;;;23.25;14.27;;;3.90;84.90;;;;;;4911798;29;20076;-76
2022/03/13 00:27:54;;;;;;;24.00;14.18;;;4.00;83.90;;;;;;4897931;29;20048;-77
2022/03/13 00:30:21;;;;;;;26.38;15.02;;;4.10;83.50;;;;;;4897941;29;20056;-80
2022/03/13 00:32:51;;;;;;;25.85;14.52;;;4.10;82.50;;;;;;4897460;29;20063;-79
2022/03/13 00:35:18;;;;;;;24.75;14.70;;;4.00;83.10;;;;;;4897914;29;20494;-80
2022/03/13 00:37:45;;;;;;;29.02;14.70;;;3.60;85.80;;;;;;4897540;29;20056;-77
2022/03/13 00:40:13;;;;;;;23.52;13.50;;;3.80;85.50;;;;;;4897954;29;20044;-80
2022/03/13 00:42:40;;;;;;;24.17;13.55;;;4.00;86.90;;;;;;4897618;29;20475;-78
2022/03/13 00:45:09;;;;;;;24.02;14.07;;;3.90;86.90;;;;;;4897700;29;20059;-79
2022/03/13 00:47:36;;;;;;;25.10;14.80;;;3.80;88.40;;;;;;4897643;29;20053;-78
2022/03/13 00:50:06;;;;;;;28.92;16.05;;;3.80;88.60;;;;;;4880992;29;20049;-76
2022/03/13 00:52:34;;;;;;;25.15;14.48;;;3.80;88.90;;;;;;4897773;29;20045;-79
2022/03/13 00:55:01;;;;;;;22.48;13.65;;;3.70;89.70;;;;;;4883751;29;20049;-80
2022/03/13 00:57:29;;;;;;;21.83;13.57;;;3.80;90.10;;;;;;4897448;29;20052;-79
2022/03/13 00:59:56;;;;;;;28.02;15.85;;;3.60;89.70;;;;;;4897983;29;20049;-78
2022/03/13 01:02:23;;;;;;;25.90;13.82;;;3.30;90.60;;;;;;4897523;29;20048;-79
2022/03/13 01:04:50;;;;;;;22.73;13.10;;;3.30;90.90;;;;;;4897575;29;20049;-77
2022/03/13 01:07:18;;;;;;;24.88;13.13;;;3.50;91.20;;;;;;4897605;29;20084;-78
2022/03/13 01:09:45;;;;;;;21.77;13.07;;;3.50;90.90;;;;;;4897692;29;20056;-80
2022/03/13 01:12:13;;;;;;;23.88;14.05;;;3.60;90.60;;;;;;4897444;29;20051;-78
2022/03/13 01:14:40;;;;;;;19.95;12.13;;;3.60;90.80;;;;;;4897165;29;20052;-81
2022/03/13 01:17:10;;;;;;;21.20;12.32;;;3.60;90.60;;;;;;4897471;29;20391;-78
2022/03/13 01:19:38;;;;;;;22.38;12.75;;;3.30;91.30;;;;;;4897652;29;20083;-78
2022/03/13 01:22:05;;;;;;;24.10;13.75;;;3.40;90.70;;;;;;4897619;29;20104;-78
2022/03/13 01:24:43;;;;;;;21.30;13.20;;;3.40;91.30;;;;;;4897408;29;20087;-78
2022/03/13 01:27:12;;;;;;;22.55;13.27;;;3.50;91.10;;;;;;4888971;29;20467;-78
2022/03/13 01:29:39;;;;;;;23.90;13.82;;;3.50;90.60;;;;;;4896841;29;20049;-77
2022/03/13 01:32:10;;;;;;;24.48;14.75;;;3.20;91.30;;;;;;4897427;29;20077;-78
2022/03/13 01:34:42;;;;;;;22.30;13.40;;;2.80;92.40;;;;;;4897423;29;20482;-79
2022/03/13 01:37:15;;;;;;;22.33;13.70;;;3.10;92.40;;;;;;4897156;29;20132;-78
2022/03/13 01:39:44;;;;;;;24.55;12.60;;;3.10;92.00;;;;;;4897528;29;20052;-77
2022/03/13 01:42:11;;;;;;;22.25;12.63;;;3.10;92.30;;;;;;4898138;29;20565;-78
2022/03/13 01:44:39;;;;;;;19.58;11.98;;;3.30;92.10;;;;;;4900327;29;20116;-78
2022/03/13 01:47:07;;;;;;;19.83;11.80;;;3.40;91.70;;;;;;4902125;29;20060;-79
2022/03/13 01:49:34;;;;;;;26.15;15.07;;;3.30;91.90;;;;;;4900485;29;20060;-79
2022/03/13 01:52:02;;;;;;;24.30;13.52;;;3.10;92.30;;;;;;4900744;29;20050;-79
2022/03/13 01:54:31;;;;;;;24.80;13.75;;;2.80;92.70;;;;;;4900782;29;20048;-80
2022/03/13 01:57:00;;;;;;;24.45;14.43;;;2.80;92.70;;;;;;4900367;29;20056;-78
2022/03/13 01:59:30;;;;;;;22.17;13.02;;;1.80;93.70;;;;;;4900371;29;20083;-78
2022/03/13 02:01:57;;;;;;;22.65;13.55;;;2.20;94.40;;;;;;4900326;29;20048;-78
2022/03/13 02:04:27;;;;;;;26.23;16.00;;;2.50;93.70;;;;;;4900300;29;20053;-77
2022/03/13 02:06:58;;;;;;;29.35;17.17;;;2.20;93.70;;;;;;4900220;29;20057;-77
2022/03/13 02:09:26;;;;;;;26.88;15.57;;;1.70;94.70;;;;;;4900396;29;20049;-78
2022/03/13 02:11:54;;;;;;;24.30;14.32;;;2.10;94.30;;;;;;4900318;29;20056;-78
2022/03/13 02:14:24;;;;;;;26.10;14.85;;;2.60;93.40;;;;;;4899958;29;20052;-77
2022/03/13 02:16:53;;;;;;;29.90;16.20;;;2.70;92.80;;;;;;4898612;29;20052;-79
2022/03/13 02:19:21;;;;;;;30.25;16.77;;;2.40;93.10;;;;;;4899981;29;20052;-78
2022/03/13 02:21:52;;;;;;;25.65;15.13;;;1.60;95.70;;;;;;4900178;29;20048;-78
2022/03/13 02:24:25;;;;;;;21.95;12.75;;;2.20;94.40;;;;;;4899841;29;20061;-79
2022/03/13 02:27:01;;;;;;;22.83;12.65;;;2.50;93.90;;;;;;4899731;29;20049;-81
2022/03/13 02:29:29;;;;;;;22.45;13.63;;;2.70;93.40;;;;;;4899699;29;20108;-79
2022/03/13 02:31:58;;;;;;;21.95;12.38;;;2.70;93.40;;;;;;4899857;29;20648;-78
2022/03/13 02:34:25;;;;;;;23.88;13.35;;;2.70;93.10;;;;;;4899971;29;20048;-78
2022/03/13 02:37:24;;;;;;;24.67;13.80;;;2.70;93.50;;;;;;4899470;29;20055;-79
2022/03/13 02:39:52;;;;;;;22.70;13.77;;;2.60;93.30;;;;;;4899554;29;20048;-78
2022/03/13 02:42:20;;;;;;;20.70;12.65;;;2.60;93.80;;;;;;4899837;29;20254;-78
2022/03/13 02:44:49;;;;;;;25.60;15.60;;;2.50;93.70;;;;;;4899344;29;20048;-78
2022/03/13 02:47:16;;;;;;;28.15;14.55;;;2.10;94.30;;;;;;4899657;29;20048;-78
2022/03/13 02:49:43;;;;;;;23.25;13.65;;;1.80;95.10;;;;;;4899354;29;20494;-79
2022/03/13 02:52:10;;;;;;;24.08;13.07;;;2.00;95.20;;;;;;4899309;29;20049;-77
2022/03/13 02:54:37;;;;;;;22.08;13.60;;;2.20;95.00;;;;;;4899617;29;20466;-76
2022/03/13 02:57:07;;;;;;;24.23;13.75;;;2.30;94.30;;;;;;4899276;29;20059;-79
2022/03/13 02:59:34;;;;;;;22.83;12.60;;;2.40;94.10;;;;;;4899634;29;20117;-81
2022/03/13 03:02:03;;;;;;;24.50;13.25;;;2.30;94.30;;;;;;4899230;29;20454;-78
2022/03/13 03:04:30;;;;;;;22.65;12.77;;;2.40;94.30;;;;;;4899319;29;20454;-77
2022/03/13 03:07:03;;;;;;;19.35;11.75;;;2.50;94.10;;;;;;4900085;29;20501;-79
2022/03/13 03:09:31;;;;;;;21.48;13.13;;;2.50;93.60;;;;;;4900944;29;20052;-78
2022/03/13 03:12:00;;;;;;;22.45;13.27;;;2.40;93.70;;;;;;4899167;29;20055;-79
2022/03/13 03:14:30;;;;;;;22.10;13.43;;;2.30;94.10;;;;;;4898963;29;20160;-78
2022/03/13 03:16:57;;;;;;;25.52;14.70;;;2.20;94.60;;;;;;4898823;29;20467;-78
2022/03/13 03:19:24;;;;;;;23.63;13.85;;;2.00;94.70;;;;;;4898837;29;20056;-79
2022/03/13 03:21:52;;;;;;;24.30;13.52;;;2.00;94.80;;;;;;4883592;29;20053;-78
2022/03/13 03:24:22;;;;;;;22.35;12.93;;;2.10;94.80;;;;;;4898882;29;20049;-79
2022/03/13 03:26:50;;;;;;;22.42;12.45;;;1.90;94.60;;;;;;4898847;29;20055;-78
2022/03/13 03:29:17;;;;;;;23.88;13.35;;;1.90;95.20;;;;;;4898935;29;20063;-78
2022/03/13 03:31:49;;;;;;;26.58;14.45;;;1.80;95.30;;;;;;4899006;29;20147;-76
2022/03/13 03:34:21;;;;;;;27.52;15.30;;;1.50;95.60;;;;;;4899059;29;20076;-77
2022/03/13 03:36:50;;;;;;;25.45;15.32;;;1.40;96.10;;;;;;4898313;29;20056;-77
2022/03/13 03:39:20;;;;;;;26.10;15.20;;;1.20;96.90;;;;;;4897996;29;20063;-78
2022/03/13 03:41:50;;;;;;;26.52;14.70;;;0.90;97.30;;;;;;4898266;29;20071;-78
2022/03/13 03:44:18;;;;;;;26.48;14.63;;;0.70;98.20;;;;;;4898210;29;20089;-78
2022/03/13 03:46:48;;;;;;;27.70;15.55;;;0.90;98.00;;;;;;4898312;29;20053;-77
2022/03/13 03:49:15;;;;;;;24.05;14.15;;;0.80;98.20;;;;;;4898393;29;20140;-78
2022/03/13 03:51:43;;;;;;;25.77;13.85;;;0.80;98.20;;;;;;4898569;29;20082;-78
2022/03/13 03:54:11;;;;;;;24.95;13.80;;;0.80;98.10;;;;;;4898262;29;20053;-77
2022/03/13 03:56:38;;;;;;;22.30;13.02;;;1.00;98.00;;;;;;4898395;29;20139;-78
2022/03/13 03:59:06;;;;;;;24.70;14.05;;;1.10;97.90;;;;;;4898503;29;20049;-77
2022/03/13 04:01:38;;;;;;;20.98;12.50;;;1.00;97.80;;;;;;4879840;29;20084;-78
2022/03/13 04:04:08;;;;;;;22.75;13.10;;;1.30;97.80;;;;;;4879674;29;20423;-78
2022/03/13 04:06:37;;;;;;;22.25;12.63;;;1.40;97.00;;;;;;4879135;29;20410;-78
2022/03/13 04:09:05;;;;;;;20.95;12.15;;;1.50;96.60;;;;;;4879454;29;20049;-77
2022/03/13 04:11:32;;;;;;;23.88;14.07;;;1.50;96.40;;;;;;4897754;29;20053;-78
2022/03/13 04:13:59;;;;;;;21.73;12.60;;;1.40;96.30;;;;;;4897775;29;20076;-78
2022/03/13 04:16:26;;;;;;;20.67;12.05;;;1.40;96.70;;;;;;4898178;29;20467;-77
2022/03/13 04:18:54;;;;;;;20.35;11.07;;;1.60;96.40;;;;;;4897861;29;20044;-79
2022/03/13 04:21:23;;;;;;;20.23;11.60;;;1.70;95.90;;;;;;4897645;29;20516;-78
2022/03/13 04:23:51;;;;;;;22.08;11.65;;;1.70;96.10;;;;;;4897910;29;20100;-79
2022/03/13 04:26:18;;;;;;;19.45;11.55;;;1.70;95.60;;;;;;4897869;29;20202;-77
2022/03/13 04:28:49;;;;;;;22.42;11.80;;;1.50;96.20;;;;;;4897931;29;20512;-77
2022/03/13 04:31:17;;;;;;;20.65;11.95;;;1.70;95.80;;;;;;4897690;29;20063;-77
2022/03/13 04:33:44;;;;;;;21.90;12.80;;;1.70;95.50;;;;;;4897893;29;20051;-76
2022/03/13 04:36:12;;;;;;;25.00;14.68;;;1.20;96.40;;;;;;4897793;29;20048;-77
2022/03/13 04:38:41;;;;;;;25.70;13.68;;;1.00;97.10;;;;;;4897779;29;20403;-77
2022/03/13 04:41:08;;;;;;;21.67;12.32;;;0.90;97.70;;;;;;4897836;29;20127;-77
2022/03/13 04:43:35;;;;;;;20.75;11.68;;;1.10;97.40;;;;;;4897899;29;20060;-77
2022/03/13 04:46:02;;;;;;;19.73;11.30;;;1.10;97.10;;;;;;4897860;29;20055;-76
2022/03/13 04:48:32;;;;;;;20.60;11.68;;;1.30;97.10;;;;;;4897633;29;20145;-77
2022/03/13 04:51:00;;;;;;;20.95;11.65;;;1.50;96.70;;;;;;4897718;29;20403;-77
2022/03/13 04:53:28;;;;;;;21.48;12.10;;;1.40;96.30;;;;;;4897678;29;20376;-77
2022/03/13 04:55:57;;;;;;;20.08;11.48;;;1.30;96.00;;;;;;4897856;29;20057;-78
2022/03/13 04:58:24;;;;;;;20.10;11.63;;;1.30;96.00;;;;;;4897528;29;20133;-77
2022/03/13 05:00:52;;;;;;;22.70;13.32;;;1.00;96.40;;;;;;4897415;29;20055;-81
2022/03/13 05:03:19;;;;;;;20.88;12.80;;;0.50;97.50;;;;;;4897485;29;20055;-79
2022/03/13 05:05:46;;;;;;;23.25;12.95;;;0.40;98.20;;;;;;4897691;29;20056;-80
2022/03/13 05:08:15;;;;;;;23.75;13.23;;;0.50;98.30;;;;;;4897615;29;20052;-77
2022/03/13 05:10:44;;;;;;;23.83;13.27;;;0.40;98.40;;;;;;4897203;29;20052;-79
2022/03/13 05:13:15;;;;;;;23.75;13.18;;;0.60;98.20;;;;;;4897324;29;20063;-76
2022/03/13 05:15:43;;;;;;;21.75;12.60;;;0.60;98.20;;;;;;4897260;29;20068;-77
2022/03/13 05:18:12;;;;;;;32.97;15.27;;;1.00;97.80;;;;;;4895555;29;20044;-79
2022/03/13 05:20:39;;;;;;;26.33;13.82;;;1.00;97.00;;;;;;4900448;29;20061;-77
2022/03/13 05:23:08;;;;;;;23.20;13.40;;;0.70;97.70;;;;;;4901263;29;20140;-80
2022/03/13 05:25:36;;;;;;;25.52;13.95;;;0.60;98.20;;;;;;4901139;29;20052;-77
2022/03/13 05:28:05;;;;;;;21.50;12.27;;;0.60;98.50;;;;;;4900939;29;20067;-77
2022/03/13 05:30:33;;;;;;;25.20;12.75;;;0.70;98.40;;;;;;4900438;29;20490;-78
2022/03/13 05:33:00;;;;;;;25.10;13.73;;;0.60;98.00;;;;;;4901040;29;20048;-79
2022/03/13 05:35:28;;;;;;;23.40;13.18;;;0.50;98.30;;;;;;4900559;29;20498;-78
2022/03/13 05:37:55;;;;;;;21.73;12.30;;;0.50;98.70;;;;;;4900786;29;20052;-80
2022/03/13 05:40:23;;;;;;;26.73;13.50;;;0.60;98.90;;;;;;4900542;29;20139;-77
2022/03/13 05:42:54;;;;;;;22.50;11.85;;;0.70;98.60;;;;;;4900660;29;20044;-79
2022/03/13 05:45:22;;;;;;;19.17;11.05;;;1.00;98.30;;;;;;4900560;29;20471;-78
2022/03/13 05:47:54;;;;;;;23.95;12.02;;;1.10;97.60;;;;;;4901012;29;20075;-80
2022/03/13 05:50:23;;;;;;;20.08;11.05;;;1.00;97.50;;;;;;4900735;29;20063;-78
2022/03/13 05:52:50;;;;;;;20.80;11.70;;;1.10;97.40;;;;;;4900608;29;20133;-78
2022/03/13 05:55:19;;;;;;;19.83;11.60;;;1.10;97.20;;;;;;4900497;29;20056;-79
2022/03/13 05:57:46;;;;;;;21.95;11.63;;;1.10;96.90;;;;;;4900196;29;20104;-78
2022/03/13 06:00:16;;;;;;;23.58;13.98;;;1.10;96.90;;;;;;4888803;29;20060;-79
2022/03/13 06:02:46;;;;;;;22.42;12.35;;;0.60;98.00;;;;;;4887059;29;20409;-77
2022/03/13 06:05:17;;;;;;;21.73;11.88;;;0.40;98.80;;;;;;4899632;29;20051;-77
2022/03/13 06:07:44;;;;;;;20.27;11.57;;;0.80;98.30;;;;;;4900075;29;20044;-77
2022/03/13 06:10:12;;;;;;;19.90;10.88;;;1.00;97.70;;;;;;4899887;29;20421;-79
2022/03/13 06:12:39;;;;;;;20.98;11.20;;;1.10;97.20;;;;;;4900273;29;20059;-79
2022/03/13 06:15:11;;;;;;;20.83;11.20;;;1.00;97.30;;;;;;4901783;29;20116;-78
2022/03/13 06:17:40;;;;;;;18.02;10.40;;;1.10;97.00;;;;;;4900585;29;20045;-78
2022/03/13 06:20:10;;;;;;;19.60;11.07;;;1.20;97.10;;;;;;4899793;29;20052;-78
2022/03/13 06:22:39;;;;;;;19.30;10.63;;;1.30;96.50;;;;;;4899911;29;20055;-80
2022/03/13 06:25:09;;;;;;;20.45;11.55;;;1.40;96.60;;;;;;4900014;29;20135;-78
2022/03/13 06:27:36;;;;;;;18.17;10.68;;;1.40;96.50;;;;;;4899798;29;20510;-78
2022/03/13 06:30:10;;;;;;;19.63;10.75;;;1.40;96.40;;;;;;4898915;29;20052;-79
2022/03/13 06:32:37;;;;;;;19.83;10.57;;;1.20;96.30;;;;;;4899569;29;20059;-79
2022/03/13 06:35:05;;;;;;;17.23;10.02;;;1.40;96.90;;;;;;4899394;29;20055;-77
2022/03/13 06:37:32;;;;;;;19.95;10.80;;;1.50;96.30;;;;;;4899069;29;20049;-77
2022/03/13 06:40:01;;;;;;;19.98;11.27;;;1.20;96.10;;;;;;4896696;29;20506;-76
2022/03/13 06:42:28;;;;;;;18.98;10.65;;;1.00;96.80;;;;;;4895553;29;20411;-78
2022/03/13 06:44:58;;;;;;;18.75;10.55;;;1.10;96.80;;;;;;4898643;29;20048;-77
2022/03/13 06:47:25;;;;;;;17.92;10.25;;;1.20;96.60;;;;;;4882622;29;20049;-78
2022/03/13 06:49:53;;;;;;;21.40;10.98;;;1.10;96.90;;;;;;4899028;29;20071;-77
2022/03/13 06:52:20;;;;;;;16.98;9.85;;;1.30;96.70;;;;;;4899638;29;20159;-77
2022/03/13 06:54:47;;;;;;;17.80;10.10;;;1.60;96.00;;;;;;4899431;29;20048;-77
2022/03/13 06:57:16;;;;;;;16.95;9.68;;;1.60;95.80;;;;;;4899322;29;20100;-78
2022/03/13 06:59:44;;;;;;;18.92;10.43;;;1.60;95.70;;;;;;4898183;29;20490;-75
2022/03/13 07:02:11;;;;;;;19.92;10.63;;;1.60;96.20;;;;;;4898945;29;20143;-77
2022/03/13 07:04:38;;;;;;;17.92;10.02;;;1.60;95.70;;;;;;4899241;29;20053;-78
2022/03/13 07:07:06;;;;;;;17.70;9.80;;;1.40;95.40;;;;;;4884048;29;20132;-76
2022/03/13 07:09:33;;;;;;;17.13;9.85;;;1.50;95.90;;;;;;4888670;29;20410;-76
2022/03/13 07:12:00;;;;;;;18.40;10.82;;;1.70;95.50;;;;;;4898569;29;20136;-79
2022/03/13 07:14:31;;;;;;;19.08;10.55;;;1.80;95.50;;;;;;4896120;29;20080;-78
2022/03/13 07:16:58;;;;;;;18.88;11.00;;;2.00;95.50;;;;;;4898579;29;20490;-79
2022/03/13 07:19:25;;;;;;;19.55;10.05;;;2.00;95.30;;;;;;4898164;29;20045;-79
2022/03/13 07:21:52;;;;;;;18.20;9.98;;;2.10;95.10;;;;;;4898586;29;20048;-78
2022/03/13 07:24:19;;;;;;;19.00;10.73;;;2.30;94.70;;;;;;4899098;29;20051;-77
2022/03/13 07:26:46;;;;;;;19.45;11.18;;;2.00;95.20;;;;;;4896853;29;20052;-78
2022/03/13 07:29:13;;;;;;;21.90;12.20;;;1.80;95.90;;;;;;4887691;29;20040;-78
2022/03/13 07:31:42;;;;;;;19.00;11.35;;;1.80;96.10;;;;;;4898863;29;20058;-78
2022/03/13 07:34:09;;;;;;;19.23;10.77;;;1.90;96.30;;;;;;4898011;29;20135;-78
2022/03/13 07:36:38;;;;;;;17.75;10.98;;;1.90;96.20;;;;;;4898081;29;20136;-78
2022/03/13 07:39:05;;;;;;;20.35;10.85;;;2.00;95.70;;;;;;4898380;29;20418;-76
2022/03/13 07:41:33;;;;;;;17.73;10.52;;;2.30;95.60;;;;;;4898058;29;20569;-77
2022/03/13 07:44:03;;;;;;;16.98;9.98;;;2.50;94.60;;;;;;4898510;29;20048;-78
2022/03/13 07:46:31;;;;;;;15.25;9.25;;;2.50;94.40;;;;;;4898430;29;20063;-77
2022/03/13 07:48:59;;;;;;;18.20;10.00;;;2.70;94.70;;;;;;4897210;29;20136;-77
2022/03/13 07:51:26;;;;;;;18.20;9.88;;;2.80;94.80;;;;;;4897877;29;20059;-78
2022/03/13 07:53:53;;;;;;;15.73;9.35;;;2.90;94.50;;;;;;4897835;29;20053;-79
2022/03/13 07:56:20;;;;;;;17.58;10.43;;;3.10;94.80;;;;;;4896576;29;20441;-78
2022/03/13 07:58:47;;;;;;;15.18;8.75;;;3.10;94.20;;;;;;4898181;29;20048;-78
2022/03/13 08:01:14;;;;;;;16.00;9.20;;;3.30;94.30;;;;;;4897893;29;20048;-79
2022/03/13 08:03:44;;;;;;;17.65;9.73;;;3.40;94.00;;;;;;4896377;29;20048;-77
2022/03/13 08:06:13;;;;;;;18.52;9.95;;;3.50;93.70;;;;;;4893568;29;20048;-75
2022/03/13 08:08:40;;;;;;;16.73;9.70;;;3.60;93.80;;;;;;4894373;29;20045;-80
2022/03/13 08:11:07;;;;;;;19.23;11.18;;;3.70;93.10;;;;;;4897193;29;20565;-80
2022/03/13 08:13:34;;;;;;;20.33;10.98;;;3.80;92.20;;;;;;4896849;29;20156;-80
2022/03/13 08:16:01;;;;;;;19.40;11.43;;;3.80;92.30;;;;;;4898176;29;20053;-79
2022/03/13 08:18:29;;;;;;;18.02;10.77;;;3.90;92.30;;;;;;4897980;29;20418;-78
2022/03/13 08:20:56;;;;;;;21.13;12.43;;;4.00;92.70;;;;;;4897859;29;20502;-78
2022/03/13 08:23:25;;;;;;;19.75;11.88;;;4.10;91.80;;;;;;4897236;29;20050;-80
2022/03/13 08:25:52;;;;;;;18.45;10.73;;;4.20;91.80;;;;;;4894047;29;20053;-78
2022/03/13 08:28:19;;;;;;;16.67;9.80;;;4.30;91.70;;;;;;4883740;29;20427;-80
2022/03/13 08:30:46;;;;;;;16.30;9.90;;;4.40;92.20;;;;;;4879172;29;20053;-79
2022/03/13 08:33:13;;;;;;;16.02;9.57;;;4.50;92.90;;;;;;4896090;29;20052;-82
2022/03/13 08:35:40;;;;;;;15.30;9.65;;;4.60;92.70;;;;;;4887490;29;20081;-79
2022/03/13 08:38:08;;;;;;;15.80;9.57;;;4.70;92.50;;;;;;4893571;29;20056;-79
2022/03/13 08:40:36;;;;;;;17.05;10.05;;;4.90;92.10;;;;;;4897749;29;20133;-78
2022/03/13 08:43:05;;;;;;;17.35;9.98;;;5.00;92.00;;;;;;4897587;29;20058;-77
2022/03/13 08:45:32;;;;;;;18.33;10.35;;;5.00;91.50;;;;;;4897863;29;20059;-80
2022/03/13 08:47:59;;;;;;;15.52;9.27;;;5.10;91.10;;;;;;4898008;29;20140;-80
2022/03/13 08:50:26;;;;;;;15.68;9.35;;;5.20;91.10;;;;;;4897223;29;20426;-78
2022/03/13 08:52:55;;;;;;;17.88;9.60;;;5.20;91.60;;;;;;4894713;29;20081;-78
2022/03/13 08:55:22;;;;;;;17.55;10.55;;;5.30;91.60;;;;;;4882721;29;20491;-79
2022/03/13 08:57:51;;;;;;;17.00;10.18;;;5.40;91.00;;;;;;4882954;29;20056;-79
2022/03/13 09:00:21;;;;;;;15.98;9.75;;;5.50;90.60;;;;;;4898045;29;20055;-79
2022/03/13 09:02:50;;;;;;;18.42;11.18;;;5.60;90.00;;;;;;4901303;29;20538;-80
2022/03/13 09:05:17;;;;;;;16.92;9.70;;;5.60;87.50;;;;;;4896622;29;20048;-80
2022/03/13 09:07:44;;;;;;;20.33;12.27;;;5.70;83.30;;;;;;4885865;29;20144;-80
2022/03/13 09:10:12;;;;;;;16.83;9.60;;;5.70;83.00;;;;;;4898432;29;20053;-77
2022/03/13 09:12:40;;;;;;;16.48;9.45;;;5.90;82.30;;;;;;4900951;29;20052;-78
2022/03/13 09:15:10;;;;;;;14.38;8.60;;;6.00;82.50;;;;;;4901145;29;20053;-78
2022/03/13 09:17:37;;;;;;;17.80;8.20;;;6.10;80.30;;;;;;4901108;29;20044;-81
2022/03/13 09:20:06;;;;;;;14.57;8.63;;;6.20;78.10;;;;;;4902904;29;20139;-80
2022/03/13 09:22:35;;;;;;;13.30;8.10;;;6.30;78.00;;;;;;4904209;29;20131;-80
2022/03/13 09:25:04;;;;;;;13.48;8.18;;;6.50;75.60;;;;;;4896344;29;20447;-80
2022/03/13 09:27:31;;;;;;;14.00;8.73;;;6.50;75.40;;;;;;4919423;29;20127;-78
2022/03/13 09:29:59;;;;;;;14.60;8.60;;;6.60;73.30;;;;;;4903274;29;20427;-78
2022/03/13 09:32:28;;;;;;;18.08;9.48;;;6.70;73.00;;;;;;4903214;29;20053;-79
2022/03/13 09:34:55;;;;;;;15.32;8.82;;;6.60;72.50;;;;;;4903264;29;20052;-80
2022/03/13 09:37:23;;;;;;;14.32;8.60;;;6.70;74.20;;;;;;4901557;29;20121;-75
2022/03/13 09:39:52;;;;;;;14.55;8.77;;;6.80;72.10;;;;;;4901471;29;20059;-78
2022/03/13 09:42:19;;;;;;;19.23;10.65;;;6.90;71.40;;;;;;4900978;29;20059;-78
2022/03/13 09:44:46;;;;;;;15.57;9.35;;;6.90;71.60;;;;;;4900836;29;20067;-78
2022/03/13 09:47:13;;;;;;;15.00;8.88;;;7.10;71.00;;;;;;4893623;29;20051;-79
2022/03/13 09:49:43;;;;;;;14.30;8.95;;;7.20;69.80;;;;;;4900287;29;20143;-82
2022/03/13 09:52:10;;;;;;;13.30;7.78;;;7.30;69.10;;;;;;4900036;29;20139;-80
2022/03/13 09:54:37;;;;;;;13.30;7.82;;;7.40;68.70;;;;;;4899913;29;20517;-80
2022/03/13 09:57:05;;;;;;;16.40;8.95;;;7.50;69.50;;;;;;4899630;29;20058;-77
2022/03/13 09:59:33;;;;;;;13.82;7.70;;;7.50;68.60;;;;;;4899680;29;20048;-80
2022/03/13 10:02:00;;;;;;;13.88;8.05;;;7.80;67.50;;;;;;4900289;29;20080;-81
2022/03/13 10:04:27;;;;;;;15.50;9.32;;;7.90;67.50;;;;;;4874986;29;20056;-80
2022/03/13 10:07:04;;;;;;;14.32;8.80;;;7.90;67.50;;;;;;4899854;29;20112;-80
2022/03/13 10:09:33;;;;;;;16.13;9.02;;;8.00;67.90;;;;;;4900526;29;20398;-80
2022/03/13 10:12:10;;;;;;;14.35;8.90;;;8.10;68.20;;;;;;4900380;29;20399;-79
2022/03/13 10:14:39;;;;;;;16.30;9.93;;;8.20;68.30;;;;;;4900233;29;20056;-81
2022/03/13 10:17:21;;;;;;;14.60;9.40;;;8.20;68.00;;;;;;4883770;29;20538;-80
2022/03/13 10:19:49;;;;;;;14.60;9.50;;;8.20;67.60;;;;;;4899950;29;20554;-80
2022/03/13 10:22:18;;;;;;;13.77;8.32;;;8.50;66.80;;;;;;4893516;29;20049;-80
2022/03/13 10:24:49;;;;;;;15.35;9.50;;;8.60;66.70;;;;;;4899562;29;20447;-80
2022/03/13 10:27:18;;;;;;;14.75;8.63;;;8.60;65.60;;;;;;4899696;29;20060;-80
2022/03/13 10:29:48;;;;;;;14.23;8.77;;;8.70;65.60;;;;;;4892817;29;20462;-80
2022/03/13 10:32:15;;;;;;;15.57;8.95;;;8.80;64.30;;;;;;4893253;29;20088;-79
2022/03/13 10:34:54;;;;;;;17.10;11.07;;;8.90;64.80;;;;;;4898826;29;20135;-80
2022/03/13 10:37:34;;;;;;;19.38;10.70;;;9.10;64.80;;;;;;4889313;29;20052;-80
2022/03/13 10:40:21;;;;;;;15.00;9.05;;;9.20;62.90;;;;;;4899668;29;20586;-79
2022/03/13 10:42:50;;;;;;;14.48;8.18;;;9.30;62.70;;;;;;4880701;29;20460;-80
2022/03/13 10:45:37;;;;;;;12.60;7.57;;;9.40;65.50;;;;;;4890463;29;20056;-80
2022/03/13 10:48:26;;;;;;;13.60;7.90;;;9.80;68.50;;;;;;4901224;29;20048;-77
2022/03/13 10:50:55;;;;;;;13.32;7.40;;;10.10;64.90;;;;;;4895058;29;20060;-80
2022/03/13 10:53:26;;;;;;;16.13;9.73;;;10.00;63.40;;;;;;4862395;29;20056;-81
2022/03/13 10:56:09;;;;;;;18.98;10.50;;;9.80;61.70;;;;;;4878911;29;20109;-80
2022/03/13 10:58:40;;;;;;;16.08;9.27;;;9.90;58.90;;;;;;4887258;29;20057;-81
2022/03/13 11:01:10;;;;;;;12.57;8.38;;;10.00;59.50;;;;;;4897983;29;20103;-81
2022/03/13 11:03:49;;;;;;;15.88;9.85;;;10.10;61.20;;;;;;4894688;29;20095;-85
2022/03/13 11:06:17;;;;;;;14.73;8.85;;;10.10;60.00;;;;;;4898218;29;20558;-85
2022/03/13 11:08:46;;;;;;;14.77;9.02;;;10.30;61.60;;;;;;4906929;29;20052;-85
2022/03/13 11:11:16;;;;;;;15.45;9.88;;;10.40;58.10;;;;;;4907292;29;20049;-85
2022/03/13 11:13:46;;;;;;;14.02;8.45;;;10.50;57.00;;;;;;4898902;29;20167;-81
2022/03/13 11:16:19;;;;;;;15.15;9.27;;;10.50;56.30;;;;;;4894059;29;20068;-85
2022/03/13 11:18:48;;;;;;;18.63;10.90;;;10.50;55.10;;;;;;4899150;29;20056;-84
2022/03/13 11:21:15;;;;;;;16.65;9.70;;;10.70;55.90;;;;;;4894591;29;20045;-83
2022/03/13 11:23:42;;;;;;;20.40;10.93;;;10.70;55.20;;;;;;4904218;29;20052;-84
2022/03/13 11:26:14;;;;;;;17.90;10.88;;;10.80;54.70;;;;;;4898969;29;20095;-86
2022/03/13 11:28:44;;;;;;;17.83;11.02;;;10.80;54.30;;;;;;4892896;29;20056;-84
2022/03/13 11:31:30;;;;;;;21.23;12.95;;;11.00;53.90;;;;;;4898761;29;20052;-84
2022/03/13 11:34:22;;;;;;;19.17;10.88;;;11.10;54.30;;;;;;4898270;29;20049;-81
2022/03/13 11:36:51;;;;;;;15.48;9.43;;;11.30;54.70;;;;;;4884013;29;20387;-81
2022/03/13 11:39:26;;;;;;;15.98;9.77;;;11.30;53.60;;;;;;4897214;29;20077;-83
2022/03/13 11:41:56;;;;;;;17.98;11.00;;;11.40;53.90;;;;;;4865398;29;20431;-82
2022/03/13 11:44:40;;;;;;;19.00;11.40;;;11.40;54.40;;;;;;4897923;29;20060;-84
2022/03/13 11:47:25;;;;;;;17.08;9.98;;;11.50;53.80;;;;;;4898583;29;20059;-83
2022/03/13 11:49:53;;;;;;;16.50;10.10;;;11.70;52.50;;;;;;4886465;29;20128;-83
2022/03/13 11:52:30;;;;;;;19.55;11.70;;;11.70;52.40;;;;;;4893302;29;20063;-80
2022/03/13 11:55:00;;;;;;;19.98;12.30;;;11.80;52.60;;;;;;4896585;29;20707;-82
2022/03/13 11:57:43;;;;;;;18.42;10.80;;;12.00;53.10;;;;;;4897430;29;20139;-86
2022/03/13 12:00:30;;;;;;;16.02;10.05;;;12.10;53.70;;;;;;4883838;29;20056;-84
2022/03/13 12:03:14;;;;;;;17.77;10.85;;;12.30;52.40;;;;;;4892815;29;20868;-84
2022/03/13 12:05:53;;;;;;;15.30;9.90;;;12.60;53.00;;;;;;4894537;29;20562;-85
2022/03/13 12:08:23;;;;;;;16.92;10.60;;;12.70;52.10;;;;;;4891799;29;20305;-84
2022/03/13 12:10:52;;;;;;;18.52;11.10;;;12.70;51.00;;;;;;4897536;29;20079;-83
2022/03/13 12:13:22;;;;;;;22.33;13.52;;;12.70;50.30;;;;;;4897086;29;20120;-83
2022/03/13 12:15:50;;;;;;;20.83;12.75;;;12.80;50.00;;;;;;4905407;29;20049;-83
2022/03/13 12:18:22;;;;;;;22.33;12.07;;;13.00;50.20;;;;;;4866789;29;20049;-84
2022/03/13 12:20:50;;;;;;;23.55;13.95;;;13.10;50.00;;;;;;4879114;29;20052;-85
2022/03/13 12:23:29;;;;;;;21.90;13.50;;;13.20;49.80;;;;;;4879381;29;20562;-85
2022/03/13 12:26:18;;;;;;;19.13;12.05;;;13.50;49.80;;;;;;4878438;29;20052;-85
2022/03/13 12:28:47;;;;;;;17.73;11.35;;;13.80;49.00;;;;;;4877804;29;20505;-80
2022/03/13 12:31:16;;;;;;;18.02;11.20;;;13.90;48.80;;;;;;4882438;29;20048;-84
2022/03/13 12:33:46;;;;;;;15.38;9.98;;;14.00;49.10;;;;;;4896598;29;20059;-83
2022/03/13 12:36:15;;;;;;;16.45;10.50;;;14.30;48.00;;;;;;4911134;29;20052;-82
2022/03/13 12:38:44;;;;;;;18.00;11.57;;;14.40;47.30;;;;;;4895469;29;20059;-82
2022/03/13 12:41:12;;;;;;;17.95;10.88;;;14.50;47.90;;;;;;4895809;29;20076;-82
2022/03/13 12:44:05;;;;;;;18.42;11.73;;;14.70;47.50;;;;;;4883209;29;20065;-86
2022/03/13 12:46:33;;;;;;;18.38;10.77;;;14.90;46.50;;;;;;4894963;29;20084;-83
2022/03/13 12:49:02;;;;;;;17.77;11.75;;;15.10;46.20;;;;;;4883432;29;20450;-83
2022/03/13 12:51:40;;;;;;;18.95;11.25;;;15.30;46.80;;;;;;4903126;29;20074;-86
2022/03/13 12:54:09;;;;;;;19.95;13.00;;;15.40;45.40;;;;;;4884956;29;20045;-79
2022/03/13 12:56:45;;;;;;;19.40;12.43;;;15.60;45.50;;;;;;4895437;29;20582;-81
2022/03/13 12:59:25;;;;;;;19.35;11.98;;;15.80;45.10;;;;;;4894904;29;20072;-81